sensor_id;sensor_type;location;lat;lon;timestamp;temperature;humidity
45969;DHT22;31676;40.444;-3.668;2022-12-24T00:02:12;22.50;76.10
45969;DHT22;31676;40.444;-3.668;2022-12-24T00:04:38;22.50;76.10
45969;DHT22;31676;40.444;-3.668;2022-12-24T00:07:03;22.50;76.10
45969;DHT22;31676;40.444;-3.668;2022-12-24T00:09:29;22.50;76.10
45969;DHT22;31676;40.444;-3.668;2022-12-24T00:11:55;22.50;76.10
45969;DHT22;31676;40.444;-3.668;2022-12-24T00:14:20;22.50;76.10
45969;DHT22;31676;40.444;-3.668;2022-12-24T00:16:46;22.50;76.10
45969;DHT22;31676;40.444;-3.668;2022-12-24T00:19:12;22.50;76.10
45969;DHT22;31676;40.444;-3.668;2022-12-24T00:21:38;22.50;76.10
45969;DHT22;31676;40.444;-3.668;2022-12-24T00:24:03;22.50;76.10
45969;DHT22;31676;40.444;-3.668;2022-12-24T00:26:30;22.50;76.10
45969;DHT22;31676;40.444;-3.668;2022-12-24T00:28:56;22.50;76.10
45969;DHT22;31676;40.444;-3.668;2022-12-24T00:31:22;22.50;76.10
45969;DHT22;31676;40.444;-3.668;2022-12-24T00:33:47;22.50;76.10
45969;DHT22;31676;40.444;-3.668;2022-12-24T00:36:13;22.50;76.20
45969;DHT22;31676;40.444;-3.668;2022-12-24T00:38:39;22.50;76.10
45969;DHT22;31676;40.444;-3.668;2022-12-24T00:41:05;22.50;76.10
45969;DHT22;31676;40.444;-3.668;2022-12-24T00:43:51;22.50;76.20
45969;DHT22;31676;40.444;-3.668;2022-12-24T00:46:17;22.50;76.10
45969;DHT22;31676;40.444;-3.668;2022-12-24T00:48:43;22.50;76.10
45969;DHT22;31676;40.444;-3.668;2022-12-24T00:51:08;22.50;76.10
45969;DHT22;31676;40.444;-3.668;2022-12-24T00:53:34;22.50;76.10
45969;DHT22;31676;40.444;-3.668;2022-12-24T00:56:00;22.50;76.10
45969;DHT22;31676;40.444;-3.668;2022-12-24T00:58:26;22.50;76.10
45969;DHT22;31676;40.444;-3.668;2022-12-24T01:00:51;22.50;76.20
45969;DHT22;31676;40.444;-3.668;2022-12-24T01:03:17;22.50;76.10
45969;DHT22;31676;40.444;-3.668;2022-12-24T01:05:43;22.50;76.10
45969;DHT22;31676;40.444;-3.668;2022-12-24T01:08:08;22.50;76.10
45969;DHT22;31676;40.444;-3.668;2022-12-24T01:10:34;22.50;76.10
45969;DHT22;31676;40.444;-3.668;2022-12-24T01:13:00;22.50;76.20
45969;DHT22;31676;40.444;-3.668;2022-12-24T01:15:26;22.50;76.10
45969;DHT22;31676;40.444;-3.668;2022-12-24T01:17:52;22.50;76.10
45969;DHT22;31676;40.444;-3.668;2022-12-24T01:20:18;22.50;76.10
45969;DHT22;31676;40.444;-3.668;2022-12-24T01:22:44;22.50;76.10
45969;DHT22;31676;40.444;-3.668;2022-12-24T01:25:10;22.50;76.10
45969;DHT22;31676;40.444;-3.668;2022-12-24T01:27:36;22.50;76.10
45969;DHT22;31676;40.444;-3.668;2022-12-24T01:30:02;22.40;76.10
45969;DHT22;31676;40.444;-3.668;2022-12-24T01:32:28;22.40;76.10
45969;DHT22;31676;40.444;-3.668;2022-12-24T01:34:54;22.50;76.10
45969;DHT22;31676;40.444;-3.668;2022-12-24T01:37:20;22.40;76.10
45969;DHT22;31676;40.444;-3.668;2022-12-24T01:39:45;22.50;76.10
45969;DHT22;31676;40.444;-3.668;2022-12-24T01:42:18;22.40;76.10
45969;DHT22;31676;40.444;-3.668;2022-12-24T01:47:46;22.40;76.10
45969;DHT22;31676;40.444;-3.668;2022-12-24T01:50:14;22.40;76.10
45969;DHT22;31676;40.444;-3.668;2022-12-24T01:52:41;22.40;76.10
45969;DHT22;31676;40.444;-3.668;2022-12-24T01:55:12;22.40;76.10
45969;DHT22;31676;40.444;-3.668;2022-12-24T01:57:40;22.40;76.10
45969;DHT22;31676;40.444;-3.668;2022-12-24T02:00:08;22.40;76.10
45969;DHT22;31676;40.444;-3.668;2022-12-24T02:02:35;22.40;76.10
45969;DHT22;31676;40.444;-3.668;2022-12-24T02:05:09;22.40;76.10
45969;DHT22;31676;40.444;-3.668;2022-12-24T02:07:35;22.40;76.10
45969;DHT22;31676;40.444;-3.668;2022-12-24T02:10:01;22.40;76.10
45969;DHT22;31676;40.444;-3.668;2022-12-24T02:12:28;22.40;76.10
45969;DHT22;31676;40.444;-3.668;2022-12-24T02:14:55;22.40;76.10
45969;DHT22;31676;40.444;-3.668;2022-12-24T02:17:29;22.40;76.80
45969;DHT22;31676;40.444;-3.668;2022-12-24T02:20:07;22.40;76.10
45969;DHT22;31676;40.444;-3.668;2022-12-24T02:25:21;22.40;76.20
45969;DHT22;31676;40.444;-3.668;2022-12-24T02:30:37;22.40;76.10
45969;DHT22;31676;40.444;-3.668;2022-12-24T02:33:21;22.40;76.10
45969;DHT22;31676;40.444;-3.668;2022-12-24T02:38:17;22.40;76.10
45969;DHT22;31676;40.444;-3.668;2022-12-24T02:40:49;22.40;76.20
45969;DHT22;31676;40.444;-3.668;2022-12-24T02:43:17;22.40;76.10
45969;DHT22;31676;40.444;-3.668;2022-12-24T02:45:44;22.40;76.10
45969;DHT22;31676;40.444;-3.668;2022-12-24T02:48:12;22.40;76.10
45969;DHT22;31676;40.444;-3.668;2022-12-24T02:50:39;22.40;76.10
45969;DHT22;31676;40.444;-3.668;2022-12-24T02:53:05;22.40;76.10
45969;DHT22;31676;40.444;-3.668;2022-12-24T02:55:38;22.40;76.10
45969;DHT22;31676;40.444;-3.668;2022-12-24T02:58:23;22.40;76.20
45969;DHT22;31676;40.444;-3.668;2022-12-24T03:01:06;22.40;76.10
45969;DHT22;31676;40.444;-3.668;2022-12-24T03:08:59;22.30;76.10
45969;DHT22;31676;40.444;-3.668;2022-12-24T03:11:26;22.30;76.10
45969;DHT22;31676;40.444;-3.668;2022-12-24T03:13:52;22.30;76.10
45969;DHT22;31676;40.444;-3.668;2022-12-24T03:16:22;22.30;76.10
45969;DHT22;31676;40.444;-3.668;2022-12-24T03:18:49;22.30;76.10
45969;DHT22;31676;40.444;-3.668;2022-12-24T03:21:16;22.30;76.10
45969;DHT22;31676;40.444;-3.668;2022-12-24T03:23:45;22.30;76.10
45969;DHT22;31676;40.444;-3.668;2022-12-24T03:26:11;22.30;76.10
45969;DHT22;31676;40.444;-3.668;2022-12-24T03:28:38;22.30;76.10
45969;DHT22;31676;40.444;-3.668;2022-12-24T03:31:04;22.30;76.10
45969;DHT22;31676;40.444;-3.668;2022-12-24T03:33:30;22.30;76.10
45969;DHT22;31676;40.444;-3.668;2022-12-24T03:35:56;22.30;76.10
45969;DHT22;31676;40.444;-3.668;2022-12-24T03:38:21;22.30;76.10
45969;DHT22;31676;40.444;-3.668;2022-12-24T03:40:47;22.30;76.10
45969;DHT22;31676;40.444;-3.668;2022-12-24T03:43:13;22.30;76.10
45969;DHT22;31676;40.444;-3.668;2022-12-24T03:45:38;22.30;76.10
45969;DHT22;31676;40.444;-3.668;2022-12-24T03:48:04;22.30;76.10
45969;DHT22;31676;40.444;-3.668;2022-12-24T03:50:30;22.30;76.10
45969;DHT22;31676;40.444;-3.668;2022-12-24T03:52:56;22.30;76.10
45969;DHT22;31676;40.444;-3.668;2022-12-24T03:55:21;22.30;76.10
45969;DHT22;31676;40.444;-3.668;2022-12-24T03:57:47;22.30;76.10
45969;DHT22;31676;40.444;-3.668;2022-12-24T04:00:13;22.30;76.10
45969;DHT22;31676;40.444;-3.668;2022-12-24T04:02:39;22.30;76.10
45969;DHT22;31676;40.444;-3.668;2022-12-24T04:05:05;22.30;76.10
45969;DHT22;31676;40.444;-3.668;2022-12-24T04:07:31;22.30;76.10
45969;DHT22;31676;40.444;-3.668;2022-12-24T04:09:57;22.30;76.10
45969;DHT22;31676;40.444;-3.668;2022-12-24T04:12:23;22.30;76.10
45969;DHT22;31676;40.444;-3.668;2022-12-24T04:14:49;22.30;76.10
45969;DHT22;31676;40.444;-3.668;2022-12-24T04:17:15;22.30;76.10
45969;DHT22;31676;40.444;-3.668;2022-12-24T04:19:40;22.30;76.10
45969;DHT22;31676;40.444;-3.668;2022-12-24T04:22:06;22.30;76.10
45969;DHT22;31676;40.444;-3.668;2022-12-24T04:24:32;22.30;76.10
45969;DHT22;31676;40.444;-3.668;2022-12-24T04:26:57;22.30;76.10
45969;DHT22;31676;40.444;-3.668;2022-12-24T04:29:23;22.30;76.70
45969;DHT22;31676;40.444;-3.668;2022-12-24T04:31:49;22.30;76.10
45969;DHT22;31676;40.444;-3.668;2022-12-24T04:34:14;22.30;76.10
45969;DHT22;31676;40.444;-3.668;2022-12-24T04:36:40;22.30;76.10
45969;DHT22;31676;40.444;-3.668;2022-12-24T04:39:06;22.20;76.00
45969;DHT22;31676;40.444;-3.668;2022-12-24T04:41:31;22.30;76.10
45969;DHT22;31676;40.444;-3.668;2022-12-24T04:43:57;22.20;76.00
45969;DHT22;31676;40.444;-3.668;2022-12-24T04:46:24;22.20;76.00
45969;DHT22;31676;40.444;-3.668;2022-12-24T04:48:50;22.20;76.10
45969;DHT22;31676;40.444;-3.668;2022-12-24T04:51:17;22.20;76.00
45969;DHT22;31676;40.444;-3.668;2022-12-24T04:53:43;22.20;76.00
45969;DHT22;31676;40.444;-3.668;2022-12-24T04:56:12;22.20;76.00
45969;DHT22;31676;40.444;-3.668;2022-12-24T04:58:39;22.20;76.00
45969;DHT22;31676;40.444;-3.668;2022-12-24T05:01:05;22.20;76.10
45969;DHT22;31676;40.444;-3.668;2022-12-24T05:03:31;22.20;76.00
45969;DHT22;31676;40.444;-3.668;2022-12-24T05:06:01;22.30;76.10
45969;DHT22;31676;40.444;-3.668;2022-12-24T05:08:27;22.20;76.00
45969;DHT22;31676;40.444;-3.668;2022-12-24T05:10:59;22.20;76.00
45969;DHT22;31676;40.444;-3.668;2022-12-24T05:13:24;22.20;76.10
45969;DHT22;31676;40.444;-3.668;2022-12-24T05:15:50;22.20;76.00
45969;DHT22;31676;40.444;-3.668;2022-12-24T05:18:16;22.20;76.00
45969;DHT22;31676;40.444;-3.668;2022-12-24T05:20:42;22.20;76.00
45969;DHT22;31676;40.444;-3.668;2022-12-24T05:23:09;22.20;76.10
45969;DHT22;31676;40.444;-3.668;2022-12-24T05:25:58;22.20;76.00
45969;DHT22;31676;40.444;-3.668;2022-12-24T05:28:42;22.20;76.00
45969;DHT22;31676;40.444;-3.668;2022-12-24T05:31:07;22.20;76.00
45969;DHT22;31676;40.444;-3.668;2022-12-24T05:33:33;22.20;76.00
45969;DHT22;31676;40.444;-3.668;2022-12-24T05:35:59;22.20;76.00
45969;DHT22;31676;40.444;-3.668;2022-12-24T05:38:25;22.20;76.10
45969;DHT22;31676;40.444;-3.668;2022-12-24T05:40:50;22.20;76.00
45969;DHT22;31676;40.444;-3.668;2022-12-24T05:43:16;22.20;76.00
45969;DHT22;31676;40.444;-3.668;2022-12-24T05:45:42;22.20;76.00
45969;DHT22;31676;40.444;-3.668;2022-12-24T05:48:07;22.20;76.00
45969;DHT22;31676;40.444;-3.668;2022-12-24T05:50:34;22.20;76.10
45969;DHT22;31676;40.444;-3.668;2022-12-24T05:52:59;22.20;76.00
45969;DHT22;31676;40.444;-3.668;2022-12-24T05:55:25;22.20;76.00
45969;DHT22;31676;40.444;-3.668;2022-12-24T05:57:50;22.20;76.10
45969;DHT22;31676;40.444;-3.668;2022-12-24T06:00:16;22.20;76.00
45969;DHT22;31676;40.444;-3.668;2022-12-24T06:02:42;22.20;76.00
45969;DHT22;31676;40.444;-3.668;2022-12-24T06:05:08;22.20;76.00
45969;DHT22;31676;40.444;-3.668;2022-12-24T06:07:33;22.20;76.00
45969;DHT22;31676;40.444;-3.668;2022-12-24T06:10:02;22.20;76.00
45969;DHT22;31676;40.444;-3.668;2022-12-24T06:12:27;22.10;76.00
45969;DHT22;31676;40.444;-3.668;2022-12-24T06:14:53;22.10;76.00
45969;DHT22;31676;40.444;-3.668;2022-12-24T06:17:19;22.10;76.00
45969;DHT22;31676;40.444;-3.668;2022-12-24T06:19:44;22.20;76.00
45969;DHT22;31676;40.444;-3.668;2022-12-24T06:22:10;22.10;76.00
45969;DHT22;31676;40.444;-3.668;2022-12-24T06:24:35;22.20;76.00
45969;DHT22;31676;40.444;-3.668;2022-12-24T06:27:01;22.10;76.00
45969;DHT22;31676;40.444;-3.668;2022-12-24T06:29:27;22.10;76.00
45969;DHT22;31676;40.444;-3.668;2022-12-24T06:31:52;22.10;76.00
45969;DHT22;31676;40.444;-3.668;2022-12-24T06:34:18;22.10;76.00
45969;DHT22;31676;40.444;-3.668;2022-12-24T06:36:44;22.10;76.00
45969;DHT22;31676;40.444;-3.668;2022-12-24T06:39:09;22.20;76.00
45969;DHT22;31676;40.444;-3.668;2022-12-24T06:41:35;22.10;76.00
45969;DHT22;31676;40.444;-3.668;2022-12-24T06:44:01;22.10;76.00
45969;DHT22;31676;40.444;-3.668;2022-12-24T06:46:27;22.10;76.00
45969;DHT22;31676;40.444;-3.668;2022-12-24T06:48:52;22.10;76.00
45969;DHT22;31676;40.444;-3.668;2022-12-24T06:51:19;22.10;76.00
45969;DHT22;31676;40.444;-3.668;2022-12-24T06:53:45;22.10;76.00
45969;DHT22;31676;40.444;-3.668;2022-12-24T06:56:11;22.10;76.00
45969;DHT22;31676;40.444;-3.668;2022-12-24T06:58:38;22.10;76.00
45969;DHT22;31676;40.444;-3.668;2022-12-24T07:01:05;22.10;76.00
45969;DHT22;31676;40.444;-3.668;2022-12-24T07:03:31;22.10;76.60
45969;DHT22;31676;40.444;-3.668;2022-12-24T07:05:57;22.10;76.00
45969;DHT22;31676;40.444;-3.668;2022-12-24T07:08:23;22.10;76.00
45969;DHT22;31676;40.444;-3.668;2022-12-24T07:10:49;22.10;76.00
45969;DHT22;31676;40.444;-3.668;2022-12-24T07:13:15;22.10;76.00
45969;DHT22;31676;40.444;-3.668;2022-12-24T07:15:41;22.10;76.00
45969;DHT22;31676;40.444;-3.668;2022-12-24T07:18:07;22.10;76.00
45969;DHT22;31676;40.444;-3.668;2022-12-24T07:20:32;22.10;76.00
45969;DHT22;31676;40.444;-3.668;2022-12-24T07:22:58;22.10;76.00
45969;DHT22;31676;40.444;-3.668;2022-12-24T07:25:24;22.10;76.00
45969;DHT22;31676;40.444;-3.668;2022-12-24T07:27:50;22.10;76.00
45969;DHT22;31676;40.444;-3.668;2022-12-24T07:30:15;22.10;76.00
45969;DHT22;31676;40.444;-3.668;2022-12-24T07:32:41;22.10;76.00
45969;DHT22;31676;40.444;-3.668;2022-12-24T07:35:07;22.10;76.00
45969;DHT22;31676;40.444;-3.668;2022-12-24T07:37:33;22.10;76.00
45969;DHT22;31676;40.444;-3.668;2022-12-24T07:39:58;22.10;76.00
45969;DHT22;31676;40.444;-3.668;2022-12-24T07:42:24;22.10;76.00
45969;DHT22;31676;40.444;-3.668;2022-12-24T07:44:50;22.10;76.00
45969;DHT22;31676;40.444;-3.668;2022-12-24T07:47:16;22.10;76.00
45969;DHT22;31676;40.444;-3.668;2022-12-24T07:49:41;22.10;76.00
45969;DHT22;31676;40.444;-3.668;2022-12-24T07:52:07;22.00;76.00
45969;DHT22;31676;40.444;-3.668;2022-12-24T07:54:33;22.10;76.00
45969;DHT22;31676;40.444;-3.668;2022-12-24T07:56:58;22.10;76.00
45969;DHT22;31676;40.444;-3.668;2022-12-24T07:59:24;22.00;75.90
45969;DHT22;31676;40.444;-3.668;2022-12-24T08:01:50;22.10;76.00
45969;DHT22;31676;40.444;-3.668;2022-12-24T08:04:15;22.00;76.00
45969;DHT22;31676;40.444;-3.668;2022-12-24T08:06:41;22.00;75.90
45969;DHT22;31676;40.444;-3.668;2022-12-24T08:09:07;22.00;75.90
45969;DHT22;31676;40.444;-3.668;2022-12-24T08:11:33;22.00;75.90
45969;DHT22;31676;40.444;-3.668;2022-12-24T08:13:58;22.00;76.00
45969;DHT22;31676;40.444;-3.668;2022-12-24T08:16:24;22.00;76.00
45969;DHT22;31676;40.444;-3.668;2022-12-24T08:18:50;22.00;75.90
45969;DHT22;31676;40.444;-3.668;2022-12-24T08:21:15;22.00;75.90
45969;DHT22;31676;40.444;-3.668;2022-12-24T08:23:41;22.00;76.00
45969;DHT22;31676;40.444;-3.668;2022-12-24T08:26:07;22.00;76.00
45969;DHT22;31676;40.444;-3.668;2022-12-24T08:28:33;22.00;76.00
45969;DHT22;31676;40.444;-3.668;2022-12-24T08:30:59;22.00;76.00
45969;DHT22;31676;40.444;-3.668;2022-12-24T08:33:25;22.00;76.00
45969;DHT22;31676;40.444;-3.668;2022-12-24T08:35:51;22.00;75.90
45969;DHT22;31676;40.444;-3.668;2022-12-24T08:38:18;22.00;76.00
45969;DHT22;31676;40.444;-3.668;2022-12-24T08:40:43;22.00;75.90
45969;DHT22;31676;40.444;-3.668;2022-12-24T08:43:11;22.00;76.00
45969;DHT22;31676;40.444;-3.668;2022-12-24T08:45:37;22.00;76.00
45969;DHT22;31676;40.444;-3.668;2022-12-24T08:48:03;22.00;76.00
45969;DHT22;31676;40.444;-3.668;2022-12-24T08:50:29;22.00;75.90
45969;DHT22;31676;40.444;-3.668;2022-12-24T08:52:54;22.00;76.00
45969;DHT22;31676;40.444;-3.668;2022-12-24T08:55:20;22.00;75.90
45969;DHT22;31676;40.444;-3.668;2022-12-24T08:57:46;22.00;76.00
45969;DHT22;31676;40.444;-3.668;2022-12-24T09:00:11;22.00;76.00
45969;DHT22;31676;40.444;-3.668;2022-12-24T09:02:37;22.00;76.00
45969;DHT22;31676;40.444;-3.668;2022-12-24T09:05:03;22.00;76.00
45969;DHT22;31676;40.444;-3.668;2022-12-24T09:07:29;22.00;76.00
45969;DHT22;31676;40.444;-3.668;2022-12-24T09:09:54;22.00;76.00
45969;DHT22;31676;40.444;-3.668;2022-12-24T09:12:20;22.00;76.00
45969;DHT22;31676;40.444;-3.668;2022-12-24T09:14:46;22.00;76.00
45969;DHT22;31676;40.444;-3.668;2022-12-24T09:17:11;21.90;75.90
45969;DHT22;31676;40.444;-3.668;2022-12-24T09:19:37;22.00;76.00
45969;DHT22;31676;40.444;-3.668;2022-12-24T09:22:03;22.00;76.00
45969;DHT22;31676;40.444;-3.668;2022-12-24T09:24:28;22.00;76.00
45969;DHT22;31676;40.444;-3.668;2022-12-24T09:26:54;22.00;76.00
45969;DHT22;31676;40.444;-3.668;2022-12-24T09:29:20;22.00;75.90
45969;DHT22;31676;40.444;-3.668;2022-12-24T09:31:45;22.00;76.00
45969;DHT22;31676;40.444;-3.668;2022-12-24T09:34:11;22.00;76.00
45969;DHT22;31676;40.444;-3.668;2022-12-24T09:36:37;22.00;76.00
45969;DHT22;31676;40.444;-3.668;2022-12-24T09:39:02;22.00;76.00
45969;DHT22;31676;40.444;-3.668;2022-12-24T09:44:26;22.00;76.00
45969;DHT22;31676;40.444;-3.668;2022-12-24T09:46:54;22.00;76.00
45969;DHT22;31676;40.444;-3.668;2022-12-24T09:49:26;22.00;76.00
45969;DHT22;31676;40.444;-3.668;2022-12-24T09:52:00;22.00;76.00
45969;DHT22;31676;40.444;-3.668;2022-12-24T09:55:03;22.00;76.00
45969;DHT22;31676;40.444;-3.668;2022-12-24T09:57:26;22.00;75.90
45969;DHT22;31676;40.444;-3.668;2022-12-24T09:59:52;22.00;75.90
45969;DHT22;31676;40.444;-3.668;2022-12-24T10:02:19;22.00;76.00
45969;DHT22;31676;40.444;-3.668;2022-12-24T10:04:45;22.00;76.00
45969;DHT22;31676;40.444;-3.668;2022-12-24T10:10:02;22.00;75.90
45969;DHT22;31676;40.444;-3.668;2022-12-24T10:13:18;22.00;76.00
45969;DHT22;31676;40.444;-3.668;2022-12-24T10:15:27;22.00;75.90
45969;DHT22;31676;40.444;-3.668;2022-12-24T10:25:43;22.00;75.90
45969;DHT22;31676;40.444;-3.668;2022-12-24T10:28:13;22.00;75.90
45969;DHT22;31676;40.444;-3.668;2022-12-24T10:30:39;22.00;75.90
45969;DHT22;31676;40.444;-3.668;2022-12-24T10:33:08;22.00;76.00
45969;DHT22;31676;40.444;-3.668;2022-12-24T10:35:38;22.00;76.00
45969;DHT22;31676;40.444;-3.668;2022-12-24T10:38:07;22.00;76.00
45969;DHT22;31676;40.444;-3.668;2022-12-24T10:40:34;22.00;76.00
45969;DHT22;31676;40.444;-3.668;2022-12-24T10:43:07;22.00;76.00
45969;DHT22;31676;40.444;-3.668;2022-12-24T10:45:36;22.00;75.90
45969;DHT22;31676;40.444;-3.668;2022-12-24T10:48:04;22.00;76.00
45969;DHT22;31676;40.444;-3.668;2022-12-24T10:50:35;22.00;75.90
45969;DHT22;31676;40.444;-3.668;2022-12-24T10:53:13;22.00;75.90
45969;DHT22;31676;40.444;-3.668;2022-12-24T10:55:42;22.00;75.90
45969;DHT22;31676;40.444;-3.668;2022-12-24T10:58:12;22.00;75.90
45969;DHT22;31676;40.444;-3.668;2022-12-24T11:00:39;22.00;75.90
45969;DHT22;31676;40.444;-3.668;2022-12-24T11:05:32;22.00;75.90
45969;DHT22;31676;40.444;-3.668;2022-12-24T11:07:59;22.00;75.90
45969;DHT22;31676;40.444;-3.668;2022-12-24T11:10:24;22.00;75.90
45969;DHT22;31676;40.444;-3.668;2022-12-24T11:12:50;22.00;75.90
45969;DHT22;31676;40.444;-3.668;2022-12-24T11:15:17;22.00;75.80
45969;DHT22;31676;40.444;-3.668;2022-12-24T11:17:55;22.10;75.90
45969;DHT22;31676;40.444;-3.668;2022-12-24T11:20:23;22.10;75.90
45969;DHT22;31676;40.444;-3.668;2022-12-24T11:22:50;22.00;75.80
45969;DHT22;31676;40.444;-3.668;2022-12-24T11:25:20;22.10;75.90
45969;DHT22;31676;40.444;-3.668;2022-12-24T11:27:47;22.10;75.90
45969;DHT22;31676;40.444;-3.668;2022-12-24T11:30:27;22.10;75.90
45969;DHT22;31676;40.444;-3.668;2022-12-24T11:35:25;22.10;75.80
45969;DHT22;31676;40.444;-3.668;2022-12-24T11:40:34;22.10;75.80
45969;DHT22;31676;40.444;-3.668;2022-12-24T11:43:00;22.10;75.80
45969;DHT22;31676;40.444;-3.668;2022-12-24T11:45:26;22.10;75.80
45969;DHT22;31676;40.444;-3.668;2022-12-24T11:47:53;22.10;75.80
45969;DHT22;31676;40.444;-3.668;2022-12-24T11:50:20;22.10;75.80
45969;DHT22;31676;40.444;-3.668;2022-12-24T11:52:47;22.20;75.90
45969;DHT22;31676;40.444;-3.668;2022-12-24T11:58:05;22.10;75.80
45969;DHT22;31676;40.444;-3.668;2022-12-24T12:00:37;22.10;75.80
45969;DHT22;31676;40.444;-3.668;2022-12-24T12:03:03;22.10;75.80
45969;DHT22;31676;40.444;-3.668;2022-12-24T12:05:34;22.20;75.80
45969;DHT22;31676;40.444;-3.668;2022-12-24T12:08:07;22.10;75.80
45969;DHT22;31676;40.444;-3.668;2022-12-24T12:10:36;22.10;75.80
45969;DHT22;31676;40.444;-3.668;2022-12-24T12:13:10;22.20;75.80
45969;DHT22;31676;40.444;-3.668;2022-12-24T12:15:45;22.10;75.80
45969;DHT22;31676;40.444;-3.668;2022-12-24T12:18:15;22.20;75.80
45969;DHT22;31676;40.444;-3.668;2022-12-24T12:20:44;22.10;75.70
45969;DHT22;31676;40.444;-3.668;2022-12-24T12:23:25;22.10;75.70
45969;DHT22;31676;40.444;-3.668;2022-12-24T12:31:20;22.20;75.80
45969;DHT22;31676;40.444;-3.668;2022-12-24T12:36:13;22.20;75.80
45969;DHT22;31676;40.444;-3.668;2022-12-24T12:38:41;22.20;75.80
45969;DHT22;31676;40.444;-3.668;2022-12-24T12:46:14;22.20;75.80
45969;DHT22;31676;40.444;-3.668;2022-12-24T12:51:24;22.20;75.80
45969;DHT22;31676;40.444;-3.668;2022-12-24T12:56:29;22.20;75.70
45969;DHT22;31676;40.444;-3.668;2022-12-24T13:17:39;22.20;75.60
45969;DHT22;31676;40.444;-3.668;2022-12-24T13:22:39;22.30;75.70
45969;DHT22;31676;40.444;-3.668;2022-12-24T13:25:21;22.20;75.60
45969;DHT22;31676;40.444;-3.668;2022-12-24T13:27:48;22.30;75.70
45969;DHT22;31676;40.444;-3.668;2022-12-24T13:30:33;22.20;75.60
45969;DHT22;31676;40.444;-3.668;2022-12-24T13:33:00;22.20;75.70
45969;DHT22;31676;40.444;-3.668;2022-12-24T13:35:26;22.20;75.60
45969;DHT22;31676;40.444;-3.668;2022-12-24T13:37:52;22.20;75.60
45969;DHT22;31676;40.444;-3.668;2022-12-24T13:40:21;22.30;75.70
45969;DHT22;31676;40.444;-3.668;2022-12-24T13:48:39;22.30;75.60
45969;DHT22;31676;40.444;-3.668;2022-12-24T13:53:22;22.30;75.60
45969;DHT22;31676;40.444;-3.668;2022-12-24T13:55:56;22.30;75.60
45969;DHT22;31676;40.444;-3.668;2022-12-24T13:58:23;22.30;75.70
45969;DHT22;31676;40.444;-3.668;2022-12-24T14:03:25;22.30;75.70
45969;DHT22;31676;40.444;-3.668;2022-12-24T14:05:53;22.30;75.60
45969;DHT22;31676;40.444;-3.668;2022-12-24T14:16:03;22.30;75.60
45969;DHT22;31676;40.444;-3.668;2022-12-24T14:18:30;22.30;75.60
45969;DHT22;31676;40.444;-3.668;2022-12-24T14:20:58;22.30;75.60
45969;DHT22;31676;40.444;-3.668;2022-12-24T14:26:16;22.30;75.60
45969;DHT22;31676;40.444;-3.668;2022-12-24T14:28:45;22.30;76.20
45969;DHT22;31676;40.444;-3.668;2022-12-24T14:31:15;22.30;75.60
45969;DHT22;31676;40.444;-3.668;2022-12-24T14:33:41;22.30;75.60
45969;DHT22;31676;40.444;-3.668;2022-12-24T14:36:07;22.30;75.60
45969;DHT22;31676;40.444;-3.668;2022-12-24T14:38:33;22.30;75.60
45969;DHT22;31676;40.444;-3.668;2022-12-24T14:41:01;22.30;75.60
45969;DHT22;31676;40.444;-3.668;2022-12-24T14:49:01;22.30;75.60
45969;DHT22;31676;40.444;-3.668;2022-12-24T14:51:38;22.30;75.60
45969;DHT22;31676;40.444;-3.668;2022-12-24T14:56:37;22.30;75.60
45969;DHT22;31676;40.444;-3.668;2022-12-24T14:59:13;22.30;75.60
45969;DHT22;31676;40.444;-3.668;2022-12-24T15:01:39;22.30;75.60
45969;DHT22;31676;40.444;-3.668;2022-12-24T15:06:38;22.30;75.60
45969;DHT22;31676;40.444;-3.668;2022-12-24T15:09:04;22.30;75.60
45969;DHT22;31676;40.444;-3.668;2022-12-24T15:11:30;22.30;75.60
45969;DHT22;31676;40.444;-3.668;2022-12-24T15:13:57;22.40;75.60
45969;DHT22;31676;40.444;-3.668;2022-12-24T15:16:33;22.30;75.60
45969;DHT22;31676;40.444;-3.668;2022-12-24T15:19:03;22.30;75.60
45969;DHT22;31676;40.444;-3.668;2022-12-24T15:21:31;22.30;75.60
45969;DHT22;31676;40.444;-3.668;2022-12-24T15:23:57;22.30;75.60
45969;DHT22;31676;40.444;-3.668;2022-12-24T15:26:31;22.30;75.60
45969;DHT22;31676;40.444;-3.668;2022-12-24T15:28:58;22.30;75.60
45969;DHT22;31676;40.444;-3.668;2022-12-24T15:31:24;22.30;75.80
45969;DHT22;31676;40.444;-3.668;2022-12-24T15:33:51;22.40;75.60
45969;DHT22;31676;40.444;-3.668;2022-12-24T15:38:53;22.40;75.60
45969;DHT22;31676;40.444;-3.668;2022-12-24T15:41:20;22.40;75.60
45969;DHT22;31676;40.444;-3.668;2022-12-24T15:43:47;22.40;75.60
45969;DHT22;31676;40.444;-3.668;2022-12-24T15:46:20;22.40;75.60
45969;DHT22;31676;40.444;-3.668;2022-12-24T15:48:46;22.40;75.60
45969;DHT22;31676;40.444;-3.668;2022-12-24T15:51:19;22.30;75.50
45969;DHT22;31676;40.444;-3.668;2022-12-24T15:53:45;22.30;75.50
45969;DHT22;31676;40.444;-3.668;2022-12-24T15:56:13;22.40;75.60
45969;DHT22;31676;40.444;-3.668;2022-12-24T15:58:51;22.40;75.60
45969;DHT22;31676;40.444;-3.668;2022-12-24T16:06:14;22.40;75.60
45969;DHT22;31676;40.444;-3.668;2022-12-24T16:08:40;22.40;75.60
45969;DHT22;31676;40.444;-3.668;2022-12-24T16:11:10;22.40;75.60
45969;DHT22;31676;40.444;-3.668;2022-12-24T16:13:50;22.40;75.60
45969;DHT22;31676;40.444;-3.668;2022-12-24T16:16:20;22.40;75.60
45969;DHT22;31676;40.444;-3.668;2022-12-24T16:18:53;22.40;75.60
45969;DHT22;31676;40.444;-3.668;2022-12-24T16:21:24;22.40;75.60
45969;DHT22;31676;40.444;-3.668;2022-12-24T16:23:54;22.40;75.60
45969;DHT22;31676;40.444;-3.668;2022-12-24T16:26:20;22.40;75.60
45969;DHT22;31676;40.444;-3.668;2022-12-24T16:28:46;22.40;75.60
45969;DHT22;31676;40.444;-3.668;2022-12-24T16:31:18;22.40;76.20
45969;DHT22;31676;40.444;-3.668;2022-12-24T16:33:52;22.40;75.60
45969;DHT22;31676;40.444;-3.668;2022-12-24T16:36:19;22.40;75.60
45969;DHT22;31676;40.444;-3.668;2022-12-24T16:38:45;22.40;75.60
45969;DHT22;31676;40.444;-3.668;2022-12-24T16:41:29;22.40;75.60
45969;DHT22;31676;40.444;-3.668;2022-12-24T16:43:55;22.40;75.60
45969;DHT22;31676;40.444;-3.668;2022-12-24T16:46:20;22.40;75.60
45969;DHT22;31676;40.444;-3.668;2022-12-24T16:48:46;22.40;75.60
45969;DHT22;31676;40.444;-3.668;2022-12-24T16:51:12;22.40;75.60
45969;DHT22;31676;40.444;-3.668;2022-12-24T16:53:38;22.40;75.60
45969;DHT22;31676;40.444;-3.668;2022-12-24T16:56:04;22.40;75.60
45969;DHT22;31676;40.444;-3.668;2022-12-24T16:58:29;22.40;75.60
45969;DHT22;31676;40.444;-3.668;2022-12-24T17:00:55;22.40;75.60
45969;DHT22;31676;40.444;-3.668;2022-12-24T17:03:21;22.40;75.60
45969;DHT22;31676;40.444;-3.668;2022-12-24T17:05:47;22.40;75.60
45969;DHT22;31676;40.444;-3.668;2022-12-24T17:08:12;22.40;75.60
45969;DHT22;31676;40.444;-3.668;2022-12-24T17:10:38;22.40;75.60
45969;DHT22;31676;40.444;-3.668;2022-12-24T17:13:04;22.40;75.60
45969;DHT22;31676;40.444;-3.668;2022-12-24T17:15:30;22.40;75.60
45969;DHT22;31676;40.444;-3.668;2022-12-24T17:17:55;22.40;75.50